MZR weather

Mazar I Sharif Airport
Balkh Province, Afghanistan

Public forecast

Using degrees Celsius for public forecast. Weather courtesy of forecast.io.

METAR (pilot weather report)

Retrieved 2019/08/24 03:50 UTC (27 minutes ago):

OAMS 240350Z 29014KT 9999 SKC 29/05 Q1011 BLU+BLU+

TAF (pilot weather forecast)

Forecast is more than 12 hours old.

Retrieved 2019/08/23 00:05 UTC (1 day ago):

TAF OAMS 232305Z 2400/2424 20014KT 9999 NSW SKC BECMG 2402/2404 32014KT 8000 NSW SKC TEMPO 2404/2410 30014G24KT 6000 NSW FEW250 BECMG 2412/2414 22009KT 8000 NSW SKC